KRND

Randolph AFB Airport

Universal City, Texas, USA
METAR KRND 200101Z AUTO 00000KT 2 3/4SM R33R/5500FT BR OVC005 10/09 A3007 RMK AO2 CIG 004 RWY15R SLP185
Observed Flight Rules
Jan-20 @ 01:01 UTC (24 minutes ago) Instrument Flight Rules
Wind Visibility Clouds Conditions
Calm 2 3/4 miles
  • Overcast at 500' AGL
  • Mist
Temperatures Readings
Current 10°C / 50°F
Dewpoint 9°C / 48°F
Humidity 94%
Altimeter 30.07" Hg
Pressure 1018.5 hPa
Elevation 232
METAR KRND 200101Z AUTO 00000KT 2 3/4SM R33R/5500FT BR OVC005 10/09 A3007 RMK AO2 CIG 004 RWY15R SLP185
Observed Flight Rules
Jan-20 @ 01:01 UTC
(24 minutes ago)
IFR
Wind Visibility
Calm 2 3/4 miles
Clouds
  • Overcast at 500' AGL
Conditions
  • Mist
Temperature Dewpoint
10°C / 50°F 9°C / 48°F
Humidity Altimeter Pressure
94% 30.07" Hg 1018.5 hPa